TimeMDT,TemperatureF,Dew PointF,Humidity,Sea Level PressureIn,VisibilityMPH,Wind Direction,Wind SpeedMPH,Gust SpeedMPH,PrecipitationIn,Events,Conditions,WindDirDegrees,DateUTC
12:15 AM,64.4,26.6,24,30.29,10.0,NNW,11.5,-,N/A,,Clear,340,2013-06-26 06:15:00
12:35 AM,62.6,26.6,26,30.28,10.0,NNW,15.0,-,N/A,,Clear,340,2013-06-26 06:35:00
12:55 AM,60.8,26.6,27,30.28,10.0,NNW,13.8,-,N/A,,Clear,330,2013-06-26 06:55:00
1:14 AM,60.8,26.6,27,30.28,10.0,NNW,18.4,-,N/A,,Clear,330,2013-06-26 07:14:00
1:35 AM,62.6,26.6,26,30.28,10.0,NNW,10.4,-,N/A,,Clear,330,2013-06-26 07:35:00
1:55 AM,59.0,26.6,29,30.28,10.0,NNW,11.5,-,N/A,,Clear,330,2013-06-26 07:55:00
2:15 AM,59.0,26.6,29,30.28,10.0,NW,12.7,17.3,N/A,,Clear,320,2013-06-26 08:15:00
2:35 AM,59.0,26.6,29,30.28,10.0,NW,13.8,18.4,N/A,,Clear,320,2013-06-26 08:35:00
2:55 AM,59.0,26.6,29,30.28,10.0,NW,16.1,-,N/A,,Clear,310,2013-06-26 08:55:00
3:15 AM,57.2,26.6,31,30.29,10.0,NW,13.8,-,N/A,,Clear,310,2013-06-26 09:15:00
3:35 AM,55.4,26.6,33,30.29,10.0,NNW,12.7,-,N/A,,Clear,330,2013-06-26 09:35:00
3:55 AM,55.4,26.6,33,30.29,10.0,NNW,13.8,-,N/A,,Clear,330,2013-06-26 09:55:00
4:14 AM,53.6,26.6,35,30.29,10.0,NW,13.8,-,N/A,,Clear,320,2013-06-26 10:14:00
4:35 AM,55.4,26.6,33,30.30,10.0,NW,17.3,-,N/A,,Clear,320,2013-06-26 10:35:00
4:54 AM,55.4,26.6,33,30.31,10.0,NW,15.0,-,N/A,,Clear,320,2013-06-26 10:54:00
5:15 AM,53.6,26.6,35,30.31,10.0,NNW,15.0,-,N/A,,Clear,330,2013-06-26 11:15:00
5:35 AM,55.4,26.6,33,30.31,10.0,NNW,16.1,-,N/A,,Clear,330,2013-06-26 11:35:00
5:55 AM,53.6,26.6,35,30.32,10.0,NW,17.3,-,N/A,,Clear,320,2013-06-26 11:55:00
6:14 AM,53.6,26.6,35,30.33,10.0,NW,13.8,-,N/A,,Clear,320,2013-06-26 12:14:00
6:35 AM,57.2,26.6,31,30.35,10.0,NNW,8.1,-,N/A,,Clear,330,2013-06-26 12:35:00
6:55 AM,55.4,28.4,36,30.35,10.0,North,5.8,-,N/A,,Clear,350,2013-06-26 12:55:00
7:15 AM,59.0,26.6,29,30.36,10.0,NW,5.8,-,N/A,,Clear,320,2013-06-26 13:15:00
7:35 AM,60.8,28.4,29,30.37,10.0,WNW,9.2,-,N/A,,Clear,300,2013-06-26 13:35:00
7:55 AM,64.4,28.4,26,30.37,10.0,NW,3.5,-,N/A,,Clear,310,2013-06-26 13:55:00
8:14 AM,62.6,33.8,34,30.38,10.0,Calm,Calm,-,N/A,,Clear,0,2013-06-26 14:14:00
8:35 AM,66.2,30.2,26,30.38,10.0,West,3.5,-,N/A,,Clear,280,2013-06-26 14:35:00
8:55 AM,68.0,28.4,23,30.38,10.0,Calm,Calm,-,N/A,,Clear,0,2013-06-26 14:55:00
9:15 AM,69.8,28.4,21,30.38,10.0,Calm,Calm,-,N/A,,Clear,0,2013-06-26 15:15:00
9:35 AM,71.6,30.2,22,30.38,10.0,South,4.6,-,N/A,,Clear,180,2013-06-26 15:35:00
9:55 AM,71.6,32.0,23,30.38,10.0,South,5.8,-,N/A,,Clear,170,2013-06-26 15:55:00
10:15 AM,73.4,32.0,22,30.38,10.0,SE,3.5,-,N/A,,Clear,140,2013-06-26 16:15:00
10:35 AM,75.2,32.0,21,30.38,10.0,South,5.8,-,N/A,,Clear,170,2013-06-26 16:35:00
10:55 AM,75.2,32.0,21,30.38,10.0,SSE,9.2,-,N/A,,Clear,160,2013-06-26 16:55:00
11:15 AM,77.0,32.0,19,30.37,10.0,SSE,10.4,-,N/A,,Clear,160,2013-06-26 17:15:00
11:35 AM,78.8,30.2,17,30.37,10.0,SW,9.2,-,N/A,,Clear,220,2013-06-26 17:35:00
11:55 AM,80.6,28.4,15,30.37,10.0,Calm,Calm,-,N/A,,Clear,0,2013-06-26 17:55:00
12:15 PM,80.6,26.6,14,30.36,10.0,West,4.6,-,N/A,,Clear,260,2013-06-26 18:15:00
12:34 PM,82.4,26.6,13,30.36,10.0,NNW,6.9,-,N/A,,Clear,340,2013-06-26 18:34:00
12:55 PM,84.2,26.6,12,30.35,10.0,NNW,11.5,17.3,N/A,,Clear,330,2013-06-26 18:55:00
1:14 PM,84.2,26.6,12,30.35,10.0,NNW,4.6,-,N/A,,Clear,330,2013-06-26 19:14:00
1:35 PM,82.4,30.2,15,30.34,10.0,South,6.9,-,N/A,,Clear,170,2013-06-26 19:35:00
1:55 PM,82.4,30.2,15,30.34,10.0,SSW,8.1,-,N/A,,Clear,210,2013-06-26 19:55:00
2:15 PM,84.2,30.2,14,30.34,10.0,SSW,9.2,-,N/A,,Clear,210,2013-06-26 20:15:00
2:35 PM,84.2,28.4,13,30.33,10.0,South,10.4,-,N/A,,Clear,180,2013-06-26 20:35:00
2:54 PM,84.2,26.6,12,30.32,10.0,ESE,6.9,-,N/A,,Clear,120,2013-06-26 20:54:00
3:15 PM,86.0,28.4,12,30.32,10.0,SSW,10.4,16.1,N/A,,Clear,200,2013-06-26 21:15:00
3:35 PM,86.0,26.6,12,30.31,10.0,South,9.2,-,N/A,,Clear,170,2013-06-26 21:35:00
3:55 PM,86.0,26.6,12,30.31,10.0,SSE,6.9,-,N/A,,Clear,150,2013-06-26 21:55:00
4:15 PM,86.0,28.4,12,30.31,10.0,SSE,8.1,-,N/A,,Clear,160,2013-06-26 22:15:00
4:35 PM,86.0,26.6,12,30.30,10.0,SSW,5.8,-,N/A,,Clear,210,2013-06-26 22:35:00
4:55 PM,86.0,28.4,12,30.29,10.0,South,8.1,-,N/A,,Clear,170,2013-06-26 22:55:00
5:15 PM,86.0,28.4,12,30.29,10.0,SSE,6.9,-,N/A,,Clear,150,2013-06-26 23:15:00
5:35 PM,86.0,26.6,12,30.29,10.0,SSE,4.6,-,N/A,,Clear,160,2013-06-26 23:35:00
5:54 PM,86.0,28.4,12,30.29,10.0,South,5.8,-,N/A,,Clear,180,2013-06-26 23:54:00
6:15 PM,84.2,26.6,12,30.29,10.0,Calm,Calm,-,N/A,,Clear,0,2013-06-27 00:15:00
6:35 PM,84.2,28.4,13,30.29,10.0,South,4.6,-,N/A,,Clear,170,2013-06-27 00:35:00
6:54 PM,82.4,30.2,15,30.29,10.0,South,5.8,-,N/A,,Clear,170,2013-06-27 00:54:00
7:15 PM,82.4,30.2,15,30.29,10.0,SW,6.9,-,N/A,,Clear,230,2013-06-27 01:15:00
7:35 PM,78.8,32.0,18,30.31,10.0,WSW,8.1,-,N/A,,Clear,240,2013-06-27 01:35:00
7:54 PM,78.8,33.8,20,30.31,10.0,WNW,4.6,-,N/A,,Clear,290,2013-06-27 01:54:00
8:15 PM,78.8,32.0,18,30.31,10.0,West,5.8,-,N/A,,Clear,280,2013-06-27 02:15:00
8:35 PM,77.0,32.0,19,30.32,10.0,WNW,3.5,-,N/A,,Clear,300,2013-06-27 02:35:00
8:55 PM,73.4,30.2,20,30.32,10.0,NNW,4.6,-,N/A,,Clear,330,2013-06-27 02:55:00
9:15 PM,71.6,30.2,22,30.33,10.0,NNW,9.2,-,N/A,,Clear,330,2013-06-27 03:15:00
9:35 PM,75.2,30.2,19,30.34,10.0,NNW,12.7,-,N/A,,Clear,330,2013-06-27 03:35:00
9:55 PM,75.2,30.2,19,30.34,10.0,NW,17.3,21.9,N/A,,Clear,320,2013-06-27 03:55:00
10:14 PM,73.4,30.2,20,30.35,10.0,NNW,15.0,-,N/A,,Clear,330,2013-06-27 04:14:00
10:35 PM,71.6,30.2,22,30.35,10.0,NW,13.8,-,N/A,,Clear,320,2013-06-27 04:35:00
10:55 PM,71.6,30.2,22,30.35,10.0,NW,17.3,-,N/A,,Clear,320,2013-06-27 04:55:00
11:15 PM,71.6,30.2,22,30.35,10.0,NW,16.1,-,N/A,,Clear,320,2013-06-27 05:15:00
11:35 PM,69.8,28.4,21,30.36,10.0,NNW,15.0,-,N/A,,Clear,330,2013-06-27 05:35:00
11:54 PM,69.8,28.4,21,30.36,10.0,NNW,17.3,-,N/A,,Clear,330,2013-06-27 05:54:00